sensor_id;sensor_type;location;lat;lon;timestamp;P1;durP1;ratioP1;P2;durP2;ratioP2
17614;SDS011;8926;49.720;6.576;2023-08-31T00:02:00;1.60;;;1.50;;
17614;SDS011;8926;49.720;6.576;2023-08-31T00:04:26;1.67;;;1.57;;
17614;SDS011;8926;49.720;6.576;2023-08-31T00:06:51;1.50;;;1.40;;
17614;SDS011;8926;49.720;6.576;2023-08-31T00:09:16;2.13;;;1.30;;
17614;SDS011;8926;49.720;6.576;2023-08-31T00:11:42;1.50;;;1.40;;
17614;SDS011;8926;49.720;6.576;2023-08-31T00:14:07;1.40;;;1.30;;
17614;SDS011;8926;49.720;6.576;2023-08-31T00:16:32;1.50;;;1.40;;
17614;SDS011;8926;49.720;6.576;2023-08-31T00:18:58;1.60;;;1.50;;
17614;SDS011;8926;49.720;6.576;2023-08-31T00:21:24;1.37;;;1.37;;
17614;SDS011;8926;49.720;6.576;2023-08-31T00:23:49;1.50;;;1.40;;
17614;SDS011;8926;49.720;6.576;2023-08-31T00:26:14;1.20;;;1.20;;
17614;SDS011;8926;49.720;6.576;2023-08-31T00:28:40;1.73;;;1.63;;
17614;SDS011;8926;49.720;6.576;2023-08-31T00:31:07;1.30;;;1.30;;
17614;SDS011;8926;49.720;6.576;2023-08-31T00:33:33;1.50;;;1.40;;
17614;SDS011;8926;49.720;6.576;2023-08-31T00:35:59;1.30;;;1.30;;
17614;SDS011;8926;49.720;6.576;2023-08-31T00:38:28;1.60;;;1.50;;
17614;SDS011;8926;49.720;6.576;2023-08-31T00:40:54;1.70;;;1.60;;
17614;SDS011;8926;49.720;6.576;2023-08-31T00:43:19;1.50;;;1.40;;
17614;SDS011;8926;49.720;6.576;2023-08-31T00:45:45;1.90;;;1.80;;
17614;SDS011;8926;49.720;6.576;2023-08-31T00:48:14;1.70;;;1.57;;
17614;SDS011;8926;49.720;6.576;2023-08-31T00:50:41;1.50;;;1.40;;
17614;SDS011;8926;49.720;6.576;2023-08-31T00:53:07;1.57;;;1.47;;
17614;SDS011;8926;49.720;6.576;2023-08-31T00:55:33;1.43;;;1.33;;
17614;SDS011;8926;49.720;6.576;2023-08-31T00:57:59;1.50;;;1.40;;
17614;SDS011;8926;49.720;6.576;2023-08-31T01:00:25;1.60;;;1.50;;
17614;SDS011;8926;49.720;6.576;2023-08-31T01:03:05;1.40;;;1.30;;
17614;SDS011;8926;49.720;6.576;2023-08-31T01:11:22;1.40;;;1.30;;
17614;SDS011;8926;49.720;6.576;2023-08-31T01:14:06;1.40;;;1.30;;
17614;SDS011;8926;49.720;6.576;2023-08-31T01:16:43;1.57;;;1.47;;
17614;SDS011;8926;49.720;6.576;2023-08-31T01:19:58;1.17;;;1.07;;
17614;SDS011;8926;49.720;6.576;2023-08-31T01:23:01;1.90;;;1.57;;
17614;SDS011;8926;49.720;6.576;2023-08-31T01:25:08;1.77;;;1.50;;
17614;SDS011;8926;49.720;6.576;2023-08-31T01:27:34;1.00;;;1.00;;
17614;SDS011;8926;49.720;6.576;2023-08-31T01:30:00;1.33;;;1.23;;
17614;SDS011;8926;49.720;6.576;2023-08-31T01:42:30;1.60;;;1.50;;
17614;SDS011;8926;49.720;6.576;2023-08-31T01:44:56;1.67;;;1.57;;
17614;SDS011;8926;49.720;6.576;2023-08-31T01:47:23;1.70;;;1.60;;
17614;SDS011;8926;49.720;6.576;2023-08-31T01:49:50;1.37;;;1.17;;
17614;SDS011;8926;49.720;6.576;2023-08-31T01:52:16;2.90;;;1.70;;
17614;SDS011;8926;49.720;6.576;2023-08-31T01:54:42;1.67;;;1.57;;
17614;SDS011;8926;49.720;6.576;2023-08-31T01:57:07;1.30;;;1.20;;
17614;SDS011;8926;49.720;6.576;2023-08-31T01:59:33;1.37;;;1.10;;
17614;SDS011;8926;49.720;6.576;2023-08-31T02:01:59;1.10;;;1.00;;
17614;SDS011;8926;49.720;6.576;2023-08-31T02:04:24;1.27;;;1.23;;
17614;SDS011;8926;49.720;6.576;2023-08-31T02:06:50;1.07;;;1.07;;
17614;SDS011;8926;49.720;6.576;2023-08-31T02:09:15;1.50;;;1.20;;
17614;SDS011;8926;49.720;6.576;2023-08-31T02:11:41;1.60;;;1.50;;
17614;SDS011;8926;49.720;6.576;2023-08-31T02:14:06;1.40;;;1.30;;
17614;SDS011;8926;49.720;6.576;2023-08-31T02:16:32;1.40;;;1.30;;
17614;SDS011;8926;49.720;6.576;2023-08-31T02:18:58;1.87;;;1.67;;
17614;SDS011;8926;49.720;6.576;2023-08-31T02:21:24;1.40;;;1.30;;
17614;SDS011;8926;49.720;6.576;2023-08-31T02:23:49;2.00;;;1.40;;
17614;SDS011;8926;49.720;6.576;2023-08-31T02:26:15;1.30;;;1.30;;
17614;SDS011;8926;49.720;6.576;2023-08-31T02:28:40;1.50;;;1.40;;
17614;SDS011;8926;49.720;6.576;2023-08-31T02:31:05;1.50;;;1.40;;
17614;SDS011;8926;49.720;6.576;2023-08-31T02:33:31;1.30;;;1.20;;
17614;SDS011;8926;49.720;6.576;2023-08-31T02:35:56;1.60;;;1.50;;
17614;SDS011;8926;49.720;6.576;2023-08-31T02:38:22;1.63;;;1.53;;
17614;SDS011;8926;49.720;6.576;2023-08-31T02:40:48;2.00;;;1.90;;
17614;SDS011;8926;49.720;6.576;2023-08-31T02:43:14;1.50;;;1.40;;
17614;SDS011;8926;49.720;6.576;2023-08-31T02:45:39;2.20;;;1.43;;
17614;SDS011;8926;49.720;6.576;2023-08-31T02:48:07;1.30;;;1.20;;
17614;SDS011;8926;49.720;6.576;2023-08-31T02:50:36;1.17;;;1.07;;
17614;SDS011;8926;49.720;6.576;2023-08-31T02:53:01;1.30;;;1.20;;
17614;SDS011;8926;49.720;6.576;2023-08-31T02:55:27;1.47;;;1.37;;
17614;SDS011;8926;49.720;6.576;2023-08-31T02:57:52;1.90;;;1.80;;
17614;SDS011;8926;49.720;6.576;2023-08-31T03:00:18;1.87;;;1.70;;
17614;SDS011;8926;49.720;6.576;2023-08-31T03:02:47;2.57;;;2.37;;
17614;SDS011;8926;49.720;6.576;2023-08-31T03:05:12;1.97;;;1.60;;
17614;SDS011;8926;49.720;6.576;2023-08-31T03:07:38;1.67;;;1.57;;
17614;SDS011;8926;49.720;6.576;2023-08-31T03:10:03;1.67;;;1.47;;
17614;SDS011;8926;49.720;6.576;2023-08-31T03:12:29;1.30;;;1.20;;
17614;SDS011;8926;49.720;6.576;2023-08-31T03:14:55;1.20;;;1.20;;
17614;SDS011;8926;49.720;6.576;2023-08-31T03:17:20;1.30;;;1.20;;
17614;SDS011;8926;49.720;6.576;2023-08-31T03:19:45;1.43;;;1.33;;
17614;SDS011;8926;49.720;6.576;2023-08-31T03:22:10;1.93;;;1.40;;
17614;SDS011;8926;49.720;6.576;2023-08-31T03:24:36;1.63;;;1.50;;
17614;SDS011;8926;49.720;6.576;2023-08-31T03:27:01;1.93;;;1.50;;
17614;SDS011;8926;49.720;6.576;2023-08-31T03:29:28;1.53;;;1.43;;
17614;SDS011;8926;49.720;6.576;2023-08-31T03:31:54;1.53;;;1.30;;
17614;SDS011;8926;49.720;6.576;2023-08-31T03:34:19;1.60;;;1.50;;
17614;SDS011;8926;49.720;6.576;2023-08-31T03:36:44;1.53;;;1.43;;
17614;SDS011;8926;49.720;6.576;2023-08-31T03:39:10;1.53;;;1.43;;
17614;SDS011;8926;49.720;6.576;2023-08-31T03:41:35;1.70;;;1.60;;
17614;SDS011;8926;49.720;6.576;2023-08-31T03:44:01;1.50;;;1.40;;
17614;SDS011;8926;49.720;6.576;2023-08-31T03:46:26;1.70;;;1.60;;
17614;SDS011;8926;49.720;6.576;2023-08-31T03:48:52;1.60;;;1.50;;
17614;SDS011;8926;49.720;6.576;2023-08-31T03:51:17;1.70;;;1.60;;
17614;SDS011;8926;49.720;6.576;2023-08-31T03:53:42;1.60;;;1.50;;
17614;SDS011;8926;49.720;6.576;2023-08-31T03:56:09;1.50;;;1.40;;
17614;SDS011;8926;49.720;6.576;2023-08-31T03:58:34;2.80;;;1.67;;
17614;SDS011;8926;49.720;6.576;2023-08-31T04:00:59;1.57;;;1.47;;
17614;SDS011;8926;49.720;6.576;2023-08-31T04:03:25;1.40;;;1.30;;
17614;SDS011;8926;49.720;6.576;2023-08-31T04:05:54;1.30;;;1.20;;
17614;SDS011;8926;49.720;6.576;2023-08-31T04:08:20;1.70;;;1.60;;
17614;SDS011;8926;49.720;6.576;2023-08-31T04:10:45;1.50;;;1.40;;
17614;SDS011;8926;49.720;6.576;2023-08-31T04:13:10;1.57;;;1.47;;
17614;SDS011;8926;49.720;6.576;2023-08-31T04:15:36;1.50;;;1.40;;
17614;SDS011;8926;49.720;6.576;2023-08-31T04:18:01;1.30;;;1.20;;
17614;SDS011;8926;49.720;6.576;2023-08-31T04:20:27;1.50;;;1.40;;
17614;SDS011;8926;49.720;6.576;2023-08-31T04:22:52;1.30;;;1.20;;
17614;SDS011;8926;49.720;6.576;2023-08-31T04:25:17;1.67;;;1.33;;
17614;SDS011;8926;49.720;6.576;2023-08-31T04:27:43;1.63;;;1.50;;
17614;SDS011;8926;49.720;6.576;2023-08-31T04:30:10;1.60;;;1.20;;
17614;SDS011;8926;49.720;6.576;2023-08-31T04:32:36;1.70;;;1.30;;
17614;SDS011;8926;49.720;6.576;2023-08-31T04:35:02;2.20;;;1.83;;
17614;SDS011;8926;49.720;6.576;2023-08-31T04:37:31;1.63;;;1.43;;
17614;SDS011;8926;49.720;6.576;2023-08-31T04:39:57;3.10;;;2.00;;
17614;SDS011;8926;49.720;6.576;2023-08-31T04:42:23;2.10;;;1.90;;
17614;SDS011;8926;49.720;6.576;2023-08-31T04:44:49;2.40;;;2.00;;
17614;SDS011;8926;49.720;6.576;2023-08-31T04:47:14;1.90;;;1.60;;
17614;SDS011;8926;49.720;6.576;2023-08-31T04:49:39;1.80;;;1.50;;
17614;SDS011;8926;49.720;6.576;2023-08-31T04:52:05;1.50;;;1.40;;
17614;SDS011;8926;49.720;6.576;2023-08-31T04:54:30;1.67;;;1.57;;
17614;SDS011;8926;49.720;6.576;2023-08-31T04:56:56;1.93;;;1.40;;
17614;SDS011;8926;49.720;6.576;2023-08-31T04:59:21;1.60;;;1.50;;
17614;SDS011;8926;49.720;6.576;2023-08-31T05:01:46;1.33;;;1.23;;
17614;SDS011;8926;49.720;6.576;2023-08-31T05:04:11;1.40;;;1.10;;
17614;SDS011;8926;49.720;6.576;2023-08-31T05:06:37;1.47;;;1.37;;
17614;SDS011;8926;49.720;6.576;2023-08-31T05:09:02;1.20;;;1.10;;
17614;SDS011;8926;49.720;6.576;2023-08-31T05:11:28;1.27;;;1.10;;
17614;SDS011;8926;49.720;6.576;2023-08-31T05:13:53;1.30;;;0.97;;
17614;SDS011;8926;49.720;6.576;2023-08-31T05:16:18;1.33;;;1.13;;
17614;SDS011;8926;49.720;6.576;2023-08-31T05:18:44;1.17;;;1.07;;
17614;SDS011;8926;49.720;6.576;2023-08-31T05:21:09;1.67;;;1.30;;
17614;SDS011;8926;49.720;6.576;2023-08-31T05:23:34;1.50;;;1.40;;
17614;SDS011;8926;49.720;6.576;2023-08-31T05:26:00;1.47;;;1.37;;
17614;SDS011;8926;49.720;6.576;2023-08-31T05:28:26;1.20;;;1.10;;
17614;SDS011;8926;49.720;6.576;2023-08-31T05:30:53;1.07;;;0.97;;
17614;SDS011;8926;49.720;6.576;2023-08-31T05:33:20;1.43;;;1.33;;
17614;SDS011;8926;49.720;6.576;2023-08-31T05:35:47;0.80;;;0.80;;
17614;SDS011;8926;49.720;6.576;2023-08-31T05:38:12;1.23;;;1.10;;
17614;SDS011;8926;49.720;6.576;2023-08-31T05:40:38;1.37;;;1.20;;
17614;SDS011;8926;49.720;6.576;2023-08-31T05:43:03;1.30;;;1.20;;
17614;SDS011;8926;49.720;6.576;2023-08-31T05:45:35;2.90;;;1.53;;
17614;SDS011;8926;49.720;6.576;2023-08-31T05:48:00;2.50;;;1.40;;
17614;SDS011;8926;49.720;6.576;2023-08-31T05:50:26;1.87;;;1.60;;
17614;SDS011;8926;49.720;6.576;2023-08-31T05:52:52;1.63;;;1.40;;
17614;SDS011;8926;49.720;6.576;2023-08-31T05:55:18;1.47;;;1.10;;
17614;SDS011;8926;49.720;6.576;2023-08-31T05:57:43;0.93;;;0.93;;
17614;SDS011;8926;49.720;6.576;2023-08-31T06:00:09;1.37;;;1.27;;
17614;SDS011;8926;49.720;6.576;2023-08-31T06:02:34;1.40;;;1.30;;
17614;SDS011;8926;49.720;6.576;2023-08-31T06:05:00;1.50;;;1.33;;
17614;SDS011;8926;49.720;6.576;2023-08-31T06:07:26;3.13;;;2.07;;
17614;SDS011;8926;49.720;6.576;2023-08-31T06:09:54;2.00;;;1.80;;
17614;SDS011;8926;49.720;6.576;2023-08-31T06:12:19;2.50;;;2.23;;
17614;SDS011;8926;49.720;6.576;2023-08-31T06:14:44;2.73;;;1.97;;
17614;SDS011;8926;49.720;6.576;2023-08-31T06:17:10;1.70;;;1.60;;
17614;SDS011;8926;49.720;6.576;2023-08-31T06:19:37;1.57;;;1.33;;
17614;SDS011;8926;49.720;6.576;2023-08-31T06:22:03;1.40;;;1.30;;
17614;SDS011;8926;49.720;6.576;2023-08-31T06:24:28;1.50;;;1.20;;
17614;SDS011;8926;49.720;6.576;2023-08-31T06:26:54;1.93;;;1.63;;
17614;SDS011;8926;49.720;6.576;2023-08-31T06:29:21;1.50;;;1.30;;
17614;SDS011;8926;49.720;6.576;2023-08-31T06:31:47;1.30;;;1.20;;
17614;SDS011;8926;49.720;6.576;2023-08-31T06:34:12;1.37;;;1.27;;
17614;SDS011;8926;49.720;6.576;2023-08-31T06:36:37;1.50;;;1.40;;
17614;SDS011;8926;49.720;6.576;2023-08-31T06:39:03;3.00;;;1.90;;
17614;SDS011;8926;49.720;6.576;2023-08-31T06:41:29;2.40;;;2.20;;
17614;SDS011;8926;49.720;6.576;2023-08-31T06:43:55;4.23;;;2.00;;
17614;SDS011;8926;49.720;6.576;2023-08-31T06:46:20;2.47;;;2.00;;
17614;SDS011;8926;49.720;6.576;2023-08-31T06:48:46;1.93;;;1.83;;
17614;SDS011;8926;49.720;6.576;2023-08-31T06:51:11;2.67;;;1.97;;
17614;SDS011;8926;49.720;6.576;2023-08-31T06:53:36;3.57;;;2.43;;
17614;SDS011;8926;49.720;6.576;2023-08-31T06:56:02;2.97;;;2.00;;
17614;SDS011;8926;49.720;6.576;2023-08-31T06:58:27;2.97;;;1.80;;
17614;SDS011;8926;49.720;6.576;2023-08-31T07:00:53;1.67;;;1.30;;
17614;SDS011;8926;49.720;6.576;2023-08-31T07:03:18;2.27;;;1.90;;
17614;SDS011;8926;49.720;6.576;2023-08-31T07:05:43;2.13;;;1.73;;
17614;SDS011;8926;49.720;6.576;2023-08-31T07:08:09;1.77;;;1.67;;
17614;SDS011;8926;49.720;6.576;2023-08-31T07:10:35;2.63;;;1.80;;
17614;SDS011;8926;49.720;6.576;2023-08-31T07:13:01;3.10;;;1.63;;
17614;SDS011;8926;49.720;6.576;2023-08-31T07:15:28;2.37;;;2.00;;
17614;SDS011;8926;49.720;6.576;2023-08-31T07:17:54;3.47;;;2.10;;
17614;SDS011;8926;49.720;6.576;2023-08-31T07:20:19;2.63;;;2.00;;
17614;SDS011;8926;49.720;6.576;2023-08-31T07:22:44;2.50;;;1.90;;
17614;SDS011;8926;49.720;6.576;2023-08-31T07:25:10;2.30;;;1.83;;
17614;SDS011;8926;49.720;6.576;2023-08-31T07:27:35;2.40;;;1.67;;
17614;SDS011;8926;49.720;6.576;2023-08-31T07:30:00;2.33;;;1.90;;
17614;SDS011;8926;49.720;6.576;2023-08-31T07:32:28;2.17;;;1.97;;
17614;SDS011;8926;49.720;6.576;2023-08-31T07:34:53;2.20;;;1.70;;
17614;SDS011;8926;49.720;6.576;2023-08-31T07:37:18;3.40;;;2.20;;
17614;SDS011;8926;49.720;6.576;2023-08-31T07:39:44;5.03;;;2.30;;
17614;SDS011;8926;49.720;6.576;2023-08-31T07:42:09;2.60;;;2.37;;
17614;SDS011;8926;49.720;6.576;2023-08-31T07:44:34;3.33;;;1.90;;
17614;SDS011;8926;49.720;6.576;2023-08-31T07:47:00;1.90;;;1.80;;
17614;SDS011;8926;49.720;6.576;2023-08-31T07:49:25;3.33;;;1.50;;
17614;SDS011;8926;49.720;6.576;2023-08-31T07:51:50;4.93;;;2.20;;
17614;SDS011;8926;49.720;6.576;2023-08-31T07:54:19;2.93;;;2.03;;
17614;SDS011;8926;49.720;6.576;2023-08-31T07:56:47;1.70;;;1.60;;
17614;SDS011;8926;49.720;6.576;2023-08-31T07:59:13;2.63;;;1.93;;
17614;SDS011;8926;49.720;6.576;2023-08-31T08:01:38;2.40;;;2.00;;
17614;SDS011;8926;49.720;6.576;2023-08-31T08:04:04;3.43;;;1.77;;
17614;SDS011;8926;49.720;6.576;2023-08-31T08:06:29;2.23;;;1.90;;
17614;SDS011;8926;49.720;6.576;2023-08-31T08:08:55;1.70;;;1.50;;
17614;SDS011;8926;49.720;6.576;2023-08-31T08:11:21;1.80;;;1.70;;
17614;SDS011;8926;49.720;6.576;2023-08-31T08:13:47;2.77;;;2.03;;
17614;SDS011;8926;49.720;6.576;2023-08-31T08:16:12;1.97;;;1.70;;
17614;SDS011;8926;49.720;6.576;2023-08-31T08:18:37;3.37;;;1.83;;
17614;SDS011;8926;49.720;6.576;2023-08-31T08:21:03;3.67;;;2.20;;
17614;SDS011;8926;49.720;6.576;2023-08-31T08:23:28;2.87;;;1.80;;
17614;SDS011;8926;49.720;6.576;2023-08-31T08:25:53;3.07;;;1.93;;
17614;SDS011;8926;49.720;6.576;2023-08-31T08:28:19;1.63;;;1.50;;
17614;SDS011;8926;49.720;6.576;2023-08-31T08:30:44;3.03;;;1.80;;
17614;SDS011;8926;49.720;6.576;2023-08-31T08:33:09;3.77;;;1.90;;
17614;SDS011;8926;49.720;6.576;2023-08-31T08:35:36;5.17;;;2.40;;
17614;SDS011;8926;49.720;6.576;2023-08-31T08:38:02;6.57;;;2.50;;
17614;SDS011;8926;49.720;6.576;2023-08-31T08:40:30;2.97;;;1.70;;
17614;SDS011;8926;49.720;6.576;2023-08-31T08:42:56;3.60;;;2.00;;
17614;SDS011;8926;49.720;6.576;2023-08-31T08:45:25;3.27;;;1.70;;
17614;SDS011;8926;49.720;6.576;2023-08-31T08:47:55;3.80;;;2.10;;
17614;SDS011;8926;49.720;6.576;2023-08-31T08:50:22;3.33;;;2.10;;
17614;SDS011;8926;49.720;6.576;2023-08-31T08:52:48;5.23;;;2.30;;
17614;SDS011;8926;49.720;6.576;2023-08-31T08:55:14;3.30;;;1.80;;
17614;SDS011;8926;49.720;6.576;2023-08-31T08:57:40;3.30;;;1.70;;
17614;SDS011;8926;49.720;6.576;2023-08-31T09:00:06;2.17;;;1.90;;
17614;SDS011;8926;49.720;6.576;2023-08-31T09:02:31;3.00;;;2.20;;
17614;SDS011;8926;49.720;6.576;2023-08-31T09:04:57;4.50;;;2.47;;
17614;SDS011;8926;49.720;6.576;2023-08-31T09:07:23;3.43;;;2.47;;
17614;SDS011;8926;49.720;6.576;2023-08-31T09:09:49;3.23;;;2.17;;
17614;SDS011;8926;49.720;6.576;2023-08-31T09:12:15;4.20;;;2.40;;
17614;SDS011;8926;49.720;6.576;2023-08-31T09:14:41;3.67;;;2.07;;
17614;SDS011;8926;49.720;6.576;2023-08-31T09:17:06;3.10;;;2.10;;
17614;SDS011;8926;49.720;6.576;2023-08-31T09:19:31;4.47;;;2.30;;
17614;SDS011;8926;49.720;6.576;2023-08-31T09:21:57;3.30;;;2.20;;
17614;SDS011;8926;49.720;6.576;2023-08-31T09:24:23;4.03;;;1.87;;
17614;SDS011;8926;49.720;6.576;2023-08-31T09:26:53;2.57;;;2.00;;
17614;SDS011;8926;49.720;6.576;2023-08-31T09:29:20;2.97;;;1.90;;
17614;SDS011;8926;49.720;6.576;2023-08-31T09:31:45;2.63;;;1.70;;
17614;SDS011;8926;49.720;6.576;2023-08-31T09:34:11;3.10;;;1.77;;
17614;SDS011;8926;49.720;6.576;2023-08-31T09:36:37;2.10;;;1.43;;
17614;SDS011;8926;49.720;6.576;2023-08-31T09:39:03;3.60;;;2.20;;
17614;SDS011;8926;49.720;6.576;2023-08-31T09:41:29;5.03;;;1.90;;
17614;SDS011;8926;49.720;6.576;2023-08-31T09:43:55;4.07;;;2.03;;
17614;SDS011;8926;49.720;6.576;2023-08-31T09:46:20;3.53;;;2.00;;
17614;SDS011;8926;49.720;6.576;2023-08-31T09:48:46;2.97;;;1.70;;
17614;SDS011;8926;49.720;6.576;2023-08-31T09:51:13;3.67;;;2.00;;
17614;SDS011;8926;49.720;6.576;2023-08-31T09:53:39;4.20;;;1.90;;
17614;SDS011;8926;49.720;6.576;2023-08-31T09:56:07;5.33;;;2.23;;
17614;SDS011;8926;49.720;6.576;2023-08-31T09:58:32;4.10;;;1.53;;
17614;SDS011;8926;49.720;6.576;2023-08-31T10:00:58;2.23;;;1.50;;
17614;SDS011;8926;49.720;6.576;2023-08-31T10:03:24;4.83;;;1.93;;
17614;SDS011;8926;49.720;6.576;2023-08-31T10:05:51;2.70;;;1.63;;
17614;SDS011;8926;49.720;6.576;2023-08-31T10:08:16;3.17;;;1.80;;
17614;SDS011;8926;49.720;6.576;2023-08-31T10:10:42;5.03;;;1.60;;
17614;SDS011;8926;49.720;6.576;2023-08-31T10:13:08;2.40;;;1.73;;
17614;SDS011;8926;49.720;6.576;2023-08-31T10:15:35;5.03;;;2.13;;
17614;SDS011;8926;49.720;6.576;2023-08-31T10:18:01;3.37;;;1.50;;
17614;SDS011;8926;49.720;6.576;2023-08-31T10:20:28;3.87;;;1.63;;
17614;SDS011;8926;49.720;6.576;2023-08-31T10:23:00;4.10;;;2.10;;
17614;SDS011;8926;49.720;6.576;2023-08-31T10:25:47;4.33;;;1.70;;
17614;SDS011;8926;49.720;6.576;2023-08-31T10:31:08;2.53;;;1.50;;
17614;SDS011;8926;49.720;6.576;2023-08-31T10:33:41;2.10;;;1.60;;
17614;SDS011;8926;49.720;6.576;2023-08-31T10:36:14;3.07;;;1.73;;
17614;SDS011;8926;49.720;6.576;2023-08-31T10:38:45;2.50;;;1.80;;
17614;SDS011;8926;49.720;6.576;2023-08-31T10:46:45;2.90;;;1.70;;
17614;SDS011;8926;49.720;6.576;2023-08-31T10:51:36;3.33;;;2.10;;
17614;SDS011;8926;49.720;6.576;2023-08-31T10:54:10;2.80;;;1.63;;
17614;SDS011;8926;49.720;6.576;2023-08-31T10:59:16;3.33;;;2.00;;
17614;SDS011;8926;49.720;6.576;2023-08-31T11:01:55;2.13;;;1.43;;
17614;SDS011;8926;49.720;6.576;2023-08-31T11:04:24;3.00;;;2.00;;
17614;SDS011;8926;49.720;6.576;2023-08-31T11:09:39;2.97;;;1.87;;
17614;SDS011;8926;49.720;6.576;2023-08-31T11:12:05;2.73;;;1.80;;
17614;SDS011;8926;49.720;6.576;2023-08-31T11:14:31;2.57;;;1.60;;
17614;SDS011;8926;49.720;6.576;2023-08-31T11:16:56;2.83;;;1.60;;
17614;SDS011;8926;49.720;6.576;2023-08-31T11:19:21;1.70;;;1.60;;
17614;SDS011;8926;49.720;6.576;2023-08-31T11:21:47;2.80;;;1.70;;
17614;SDS011;8926;49.720;6.576;2023-08-31T11:24:13;2.20;;;1.63;;
17614;SDS011;8926;49.720;6.576;2023-08-31T11:26:41;3.37;;;1.50;;
17614;SDS011;8926;49.720;6.576;2023-08-31T11:29:07;3.37;;;1.70;;
17614;SDS011;8926;49.720;6.576;2023-08-31T11:31:32;3.00;;;1.73;;
17614;SDS011;8926;49.720;6.576;2023-08-31T11:34:04;3.47;;;1.67;;
17614;SDS011;8926;49.720;6.576;2023-08-31T11:36:30;4.70;;;2.07;;
17614;SDS011;8926;49.720;6.576;2023-08-31T11:38:56;3.80;;;2.20;;
17614;SDS011;8926;49.720;6.576;2023-08-31T11:41:21;2.20;;;1.77;;
17614;SDS011;8926;49.720;6.576;2023-08-31T11:43:48;3.20;;;1.83;;
17614;SDS011;8926;49.720;6.576;2023-08-31T11:46:13;4.40;;;2.10;;
17614;SDS011;8926;49.720;6.576;2023-08-31T11:48:40;3.07;;;1.90;;
17614;SDS011;8926;49.720;6.576;2023-08-31T11:51:06;4.13;;;2.17;;
17614;SDS011;8926;49.720;6.576;2023-08-31T11:53:31;3.07;;;1.50;;
17614;SDS011;8926;49.720;6.576;2023-08-31T11:55:56;3.13;;;2.07;;
17614;SDS011;8926;49.720;6.576;2023-08-31T11:58:22;3.40;;;2.00;;
17614;SDS011;8926;49.720;6.576;2023-08-31T12:00:58;3.60;;;2.17;;
17614;SDS011;8926;49.720;6.576;2023-08-31T12:03:25;1.80;;;1.60;;
17614;SDS011;8926;49.720;6.576;2023-08-31T12:05:51;4.07;;;2.13;;
17614;SDS011;8926;49.720;6.576;2023-08-31T12:08:25;4.53;;;1.97;;
17614;SDS011;8926;49.720;6.576;2023-08-31T12:10:52;4.97;;;2.00;;
17614;SDS011;8926;49.720;6.576;2023-08-31T12:13:17;2.07;;;1.83;;
17614;SDS011;8926;49.720;6.576;2023-08-31T12:15:43;12.00;;;2.57;;
17614;SDS011;8926;49.720;6.576;2023-08-31T12:18:08;5.47;;;2.20;;
17614;SDS011;8926;49.720;6.576;2023-08-31T12:20:50;2.63;;;1.70;;
17614;SDS011;8926;49.720;6.576;2023-08-31T12:23:16;3.80;;;1.67;;
17614;SDS011;8926;49.720;6.576;2023-08-31T12:25:48;3.20;;;2.13;;
17614;SDS011;8926;49.720;6.576;2023-08-31T12:28:18;3.90;;;2.40;;
17614;SDS011;8926;49.720;6.576;2023-08-31T12:30:48;3.90;;;2.17;;
17614;SDS011;8926;49.720;6.576;2023-08-31T12:33:17;1.67;;;1.47;;
17614;SDS011;8926;49.720;6.576;2023-08-31T12:35:43;3.83;;;2.13;;
17614;SDS011;8926;49.720;6.576;2023-08-31T12:38:09;1.93;;;1.40;;
17614;SDS011;8926;49.720;6.576;2023-08-31T12:40:35;4.27;;;2.80;;
17614;SDS011;8926;49.720;6.576;2023-08-31T12:43:00;3.13;;;2.00;;
17614;SDS011;8926;49.720;6.576;2023-08-31T12:45:26;4.50;;;2.47;;
17614;SDS011;8926;49.720;6.576;2023-08-31T12:47:51;3.43;;;2.03;;
17614;SDS011;8926;49.720;6.576;2023-08-31T12:50:17;3.17;;;2.10;;
17614;SDS011;8926;49.720;6.576;2023-08-31T12:52:43;3.17;;;2.37;;
17614;SDS011;8926;49.720;6.576;2023-08-31T12:55:11;5.90;;;2.40;;
17614;SDS011;8926;49.720;6.576;2023-08-31T12:57:37;2.87;;;2.10;;
17614;SDS011;8926;49.720;6.576;2023-08-31T13:00:03;4.40;;;2.20;;
17614;SDS011;8926;49.720;6.576;2023-08-31T13:02:30;3.70;;;2.10;;
17614;SDS011;8926;49.720;6.576;2023-08-31T13:04:55;3.17;;;2.20;;
17614;SDS011;8926;49.720;6.576;2023-08-31T13:07:20;4.90;;;2.50;;
17614;SDS011;8926;49.720;6.576;2023-08-31T13:09:46;3.40;;;2.20;;
17614;SDS011;8926;49.720;6.576;2023-08-31T13:12:11;3.80;;;1.83;;
17614;SDS011;8926;49.720;6.576;2023-08-31T13:14:36;5.23;;;2.03;;
17614;SDS011;8926;49.720;6.576;2023-08-31T13:17:02;2.57;;;1.60;;
17614;SDS011;8926;49.720;6.576;2023-08-31T13:19:28;2.97;;;1.80;;
17614;SDS011;8926;49.720;6.576;2023-08-31T13:21:53;5.23;;;2.10;;
17614;SDS011;8926;49.720;6.576;2023-08-31T13:24:19;5.20;;;2.23;;
17614;SDS011;8926;49.720;6.576;2023-08-31T13:26:44;3.67;;;2.33;;
17614;SDS011;8926;49.720;6.576;2023-08-31T13:29:12;4.27;;;1.87;;
17614;SDS011;8926;49.720;6.576;2023-08-31T13:31:38;4.80;;;2.17;;
17614;SDS011;8926;49.720;6.576;2023-08-31T13:34:04;4.43;;;2.40;;
17614;SDS011;8926;49.720;6.576;2023-08-31T13:36:31;3.03;;;1.90;;
17614;SDS011;8926;49.720;6.576;2023-08-31T13:38:57;2.77;;;2.00;;
17614;SDS011;8926;49.720;6.576;2023-08-31T13:41:22;2.60;;;1.73;;
17614;SDS011;8926;49.720;6.576;2023-08-31T13:43:47;3.63;;;2.20;;
17614;SDS011;8926;49.720;6.576;2023-08-31T13:46:13;2.40;;;2.00;;
17614;SDS011;8926;49.720;6.576;2023-08-31T13:48:38;3.90;;;2.30;;
17614;SDS011;8926;49.720;6.576;2023-08-31T13:51:03;4.47;;;2.03;;
17614;SDS011;8926;49.720;6.576;2023-08-31T13:53:28;3.90;;;2.10;;
17614;SDS011;8926;49.720;6.576;2023-08-31T13:55:54;3.03;;;1.90;;
17614;SDS011;8926;49.720;6.576;2023-08-31T13:58:19;3.53;;;2.40;;
17614;SDS011;8926;49.720;6.576;2023-08-31T14:00:44;4.07;;;2.57;;
17614;SDS011;8926;49.720;6.576;2023-08-31T14:03:10;2.73;;;1.83;;
17614;SDS011;8926;49.720;6.576;2023-08-31T14:05:35;3.93;;;2.17;;
17614;SDS011;8926;49.720;6.576;2023-08-31T14:08:00;4.33;;;2.33;;
17614;SDS011;8926;49.720;6.576;2023-08-31T14:10:29;4.57;;;2.40;;
17614;SDS011;8926;49.720;6.576;2023-08-31T14:12:56;4.33;;;2.30;;
17614;SDS011;8926;49.720;6.576;2023-08-31T14:15:22;2.93;;;1.77;;
17614;SDS011;8926;49.720;6.576;2023-08-31T14:17:49;2.53;;;1.77;;
17614;SDS011;8926;49.720;6.576;2023-08-31T14:20:15;3.17;;;2.33;;
17614;SDS011;8926;49.720;6.576;2023-08-31T14:22:40;5.10;;;2.30;;
17614;SDS011;8926;49.720;6.576;2023-08-31T14:25:09;3.97;;;2.40;;
17614;SDS011;8926;49.720;6.576;2023-08-31T14:27:37;3.30;;;2.10;;
17614;SDS011;8926;49.720;6.576;2023-08-31T14:30:04;5.13;;;2.20;;
17614;SDS011;8926;49.720;6.576;2023-08-31T14:32:31;1.43;;;1.33;;
17614;SDS011;8926;49.720;6.576;2023-08-31T14:34:56;2.30;;;2.10;;
17614;SDS011;8926;49.720;6.576;2023-08-31T14:37:21;2.73;;;2.10;;
17614;SDS011;8926;49.720;6.576;2023-08-31T14:39:47;2.30;;;2.00;;
17614;SDS011;8926;49.720;6.576;2023-08-31T14:42:12;2.17;;;1.60;;
17614;SDS011;8926;49.720;6.576;2023-08-31T14:44:37;2.47;;;1.73;;
17614;SDS011;8926;49.720;6.576;2023-08-31T14:47:03;2.43;;;2.13;;
17614;SDS011;8926;49.720;6.576;2023-08-31T14:49:28;2.03;;;1.57;;
17614;SDS011;8926;49.720;6.576;2023-08-31T14:51:54;1.50;;;1.40;;
17614;SDS011;8926;49.720;6.576;2023-08-31T14:54:19;2.10;;;1.60;;
17614;SDS011;8926;49.720;6.576;2023-08-31T14:56:45;2.23;;;1.60;;
17614;SDS011;8926;49.720;6.576;2023-08-31T14:59:10;1.40;;;1.30;;
17614;SDS011;8926;49.720;6.576;2023-08-31T15:01:35;3.40;;;1.87;;
17614;SDS011;8926;49.720;6.576;2023-08-31T15:04:01;1.50;;;1.40;;
17614;SDS011;8926;49.720;6.576;2023-08-31T15:06:26;2.03;;;1.40;;
17614;SDS011;8926;49.720;6.576;2023-08-31T15:08:54;1.17;;;1.13;;
17614;SDS011;8926;49.720;6.576;2023-08-31T15:11:19;2.97;;;1.87;;
17614;SDS011;8926;49.720;6.576;2023-08-31T15:13:45;3.13;;;1.60;;
17614;SDS011;8926;49.720;6.576;2023-08-31T15:16:10;2.63;;;1.87;;
17614;SDS011;8926;49.720;6.576;2023-08-31T15:18:35;3.37;;;1.80;;
17614;SDS011;8926;49.720;6.576;2023-08-31T15:21:00;2.30;;;1.50;;
17614;SDS011;8926;49.720;6.576;2023-08-31T15:23:26;2.30;;;1.50;;
17614;SDS011;8926;49.720;6.576;2023-08-31T15:25:51;3.97;;;1.97;;
17614;SDS011;8926;49.720;6.576;2023-08-31T15:28:16;1.60;;;1.50;;